Time;durP1;ratioP1;P1;durP2;ratioP2;P2;SDS_P1;SDS_P2;PMS_P1;PMS_P2;Temp;Humidity;BMP_temperature;BMP_pressure;BME280_temperature;BME280_humidity;BME280_pressure;Samples;Min_cycle;Max_cycle;Signal;HPM_P1;HPM_P2
2023/10/10 05:24:23;;;;;;;6.83;4.60;;;13.80;99.90;;;;;;4938045;29;20512;-71
2023/10/10 05:26:54;;;;;;;4.70;4.30;;;13.70;99.90;;;;;;4938023;29;20469;-71
2023/10/10 05:29:21;;;;;;;5.10;4.57;;;13.70;99.90;;;;;;4937621;29;20589;-71
2023/10/10 05:31:48;;;;;;;5.10;4.60;;;13.70;99.90;;;;;;4937832;29;20496;-71
2023/10/10 05:34:15;;;;;;;4.70;4.30;;;13.70;99.90;;;;;;4938241;29;20591;-71
2023/10/10 05:36:42;;;;;;;4.53;3.97;;;13.70;99.90;;;;;;4937978;29;20469;-71
2023/10/10 05:39:11;;;;;;;8.13;4.87;;;13.70;99.90;;;;;;4937825;29;20468;-71
2023/10/10 05:41:40;;;;;;;8.03;5.43;;;13.70;99.90;;;;;;4937486;29;20488;-71
2023/10/10 05:44:08;;;;;;;6.10;4.33;;;13.70;99.90;;;;;;4937462;29;20462;-71
2023/10/10 05:46:35;;;;;;;6.40;4.30;;;13.70;99.90;;;;;;4938247;29;20924;-71
2023/10/10 05:49:03;;;;;;;6.33;4.67;;;13.70;99.90;;;;;;4937889;29;20497;-71
2023/10/10 05:51:30;;;;;;;10.83;5.20;;;13.70;99.90;;;;;;4937527;29;20516;-71
2023/10/10 05:53:56;;;;;;;7.13;4.90;;;13.70;99.90;;;;;;4937619;29;20902;-71
2023/10/10 05:56:23;;;;;;;6.47;4.80;;;13.80;99.90;;;;;;4937558;29;20467;-71
2023/10/10 05:58:52;;;;;;;6.53;5.00;;;13.80;99.90;;;;;;4937440;29;20466;-71
2023/10/10 06:01:19;;;;;;;4.97;4.23;;;13.80;99.90;;;;;;4937457;29;20498;-71
2023/10/10 06:03:46;;;;;;;4.80;4.50;;;13.80;99.90;;;;;;4937652;29;20469;-70
2023/10/10 06:06:13;;;;;;;4.50;4.00;;;13.80;99.90;;;;;;4937455;29;20466;-71
2023/10/10 06:08:42;;;;;;;8.40;5.07;;;13.90;99.90;;;;;;4937445;29;20589;-71
2023/10/10 06:11:10;;;;;;;7.07;4.60;;;13.80;99.90;;;;;;4937059;29;20487;-72
2023/10/10 06:13:39;;;;;;;6.33;3.50;;;13.80;99.90;;;;;;4937304;29;20554;-71
2023/10/10 06:16:12;;;;;;;6.40;4.67;;;13.80;99.90;;;;;;4937125;29;20473;-71
2023/10/10 06:18:41;;;;;;;5.17;4.67;;;13.90;99.90;;;;;;4937085;29;20494;-71
2023/10/10 06:21:09;;;;;;;9.20;5.20;;;13.90;99.90;;;;;;4936965;29;20876;-72
2023/10/10 06:23:36;;;;;;;8.40;5.13;;;13.90;99.90;;;;;;4936812;29;20504;-71
2023/10/10 06:26:04;;;;;;;9.93;4.83;;;13.90;99.90;;;;;;4936674;29;20509;-71
2023/10/10 06:28:35;;;;;;;7.60;4.50;;;13.90;99.90;;;;;;4936788;29;20503;-71
2023/10/10 06:31:03;;;;;;;4.83;4.10;;;13.90;99.90;;;;;;4936816;29;20490;-72
2023/10/10 06:33:33;;;;;;;7.03;4.13;;;14.00;99.90;;;;;;4936854;29;20467;-71
2023/10/10 06:36:25;;;;;;;5.63;4.13;;;14.00;99.90;;;;;;4936906;29;20462;-71
2023/10/10 06:39:18;;;;;;;4.57;4.17;;;14.00;99.90;;;;;;4936817;29;20459;-72
2023/10/10 06:41:50;;;;;;;5.67;4.17;;;14.00;99.90;;;;;;4936569;29;20484;-71
2023/10/10 06:44:31;;;;;;;4.50;4.13;;;14.10;99.90;;;;;;4936351;29;20970;-71
2023/10/10 06:46:59;;;;;;;5.60;5.03;;;14.10;99.90;;;;;;4936764;29;20950;-72
2023/10/10 06:49:43;;;;;;;6.03;5.20;;;14.10;99.90;;;;;;4936596;29;20499;-72
2023/10/10 06:52:14;;;;;;;6.87;5.30;;;14.10;99.90;;;;;;4936495;29;20492;-72
2023/10/10 06:54:44;;;;;;;6.10;4.47;;;14.10;99.90;;;;;;4936845;29;20534;-72
2023/10/10 06:57:17;;;;;;;7.67;5.00;;;14.20;99.90;;;;;;4936160;29;20468;-71
2023/10/10 06:59:44;;;;;;;5.63;4.60;;;14.20;99.90;;;;;;4936532;29;20469;-71
2023/10/10 07:02:20;;;;;;;11.73;5.30;;;14.20;99.90;;;;;;4936186;29;20499;-72
2023/10/10 07:04:53;;;;;;;8.00;4.50;;;14.30;99.90;;;;;;4929236;29;20466;-72
2023/10/10 07:07:21;;;;;;;4.70;4.30;;;14.30;99.90;;;;;;4936093;29;20468;-72
2023/10/10 07:09:47;;;;;;;7.23;5.03;;;14.30;99.90;;;;;;4936368;29;20493;-72
2023/10/10 07:12:16;;;;;;;6.63;5.73;;;14.40;99.90;;;;;;4936412;29;20484;-72
2023/10/10 07:14:44;;;;;;;4.90;3.97;;;14.40;99.90;;;;;;4936105;29;20467;-72
2023/10/10 07:17:12;;;;;;;8.83;4.97;;;14.40;99.90;;;;;;4936046;29;20860;-72
2023/10/10 07:20:54;;;;;;;11.27;4.93;;;14.40;99.90;;;;;;4935942;29;20514;-72
2023/10/10 07:22:28;;;;;;;7.00;5.40;;;14.50;99.90;;;;;;4935705;29;20550;-73
2023/10/10 07:25:06;;;;;;;8.10;5.90;;;14.50;99.90;;;;;;4935953;29;20486;-73
2023/10/10 07:27:33;;;;;;;9.53;6.50;;;14.50;99.90;;;;;;4935887;29;20467;-73
2023/10/10 07:30:08;;;;;;;12.40;7.30;;;14.50;99.90;;;;;;4935874;29;20502;-72
2023/10/10 07:32:38;;;;;;;7.53;6.03;;;14.60;99.90;;;;;;4935619;29;20507;-73
2023/10/10 07:35:06;;;;;;;10.83;7.60;;;14.70;99.90;;;;;;4935800;29;20733;-73
2023/10/10 07:37:35;;;;;;;13.40;7.47;;;14.70;99.90;;;;;;4935708;29;20534;-75
2023/10/10 07:40:18;;;;;;;9.03;7.33;;;14.80;99.90;;;;;;4934975;29;20468;-73
2023/10/10 07:42:49;;;;;;;9.67;7.40;;;14.90;99.90;;;;;;4928192;29;20475;-73
2023/10/10 07:45:26;;;;;;;13.60;7.97;;;14.90;99.90;;;;;;4935746;29;20523;-72
2023/10/10 07:50:46;;;;;;;9.27;5.60;;;15.00;99.90;;;;;;4935643;29;20502;-72
2023/10/10 07:53:15;;;;;;;11.87;6.17;;;15.00;99.90;;;;;;4935481;29;20478;-72
2023/10/10 07:55:52;;;;;;;7.10;5.53;;;15.00;99.90;;;;;;4935587;29;20467;-72
2023/10/10 07:58:20;;;;;;;14.63;5.17;;;15.00;99.90;;;;;;4935522;29;20894;-71
2023/10/10 08:00:47;;;;;;;7.00;5.40;;;15.00;99.90;;;;;;4935187;29;21002;-71
2023/10/10 08:03:19;;;;;;;7.20;5.07;;;15.00;99.90;;;;;;4935279;29;20470;-72
2023/10/10 08:05:47;;;;;;;6.53;4.70;;;15.00;99.90;;;;;;4935162;29;20507;-72
2023/10/10 08:08:16;;;;;;;4.37;3.97;;;15.10;99.90;;;;;;4935391;29;20477;-70
2023/10/10 08:10:46;;;;;;;6.77;4.97;;;15.10;99.90;;;;;;4935157;29;21017;-72
2023/10/10 08:13:14;;;;;;;5.23;3.70;;;15.10;99.90;;;;;;4935025;29;20472;-72
2023/10/10 08:15:50;;;;;;;7.73;4.37;;;15.20;99.90;;;;;;4934717;29;20527;-72
2023/10/10 08:18:39;;;;;;;4.40;3.67;;;15.10;99.90;;;;;;4934818;29;21038;-71
2023/10/10 08:21:09;;;;;;;10.60;4.30;;;15.20;99.90;;;;;;4934797;29;20512;-72
2023/10/10 08:23:42;;;;;;;5.87;4.00;;;15.20;99.90;;;;;;4934773;29;20465;-72
2023/10/10 08:26:10;;;;;;;3.90;3.60;;;15.30;99.90;;;;;;4935223;29;20472;-73
2023/10/10 08:28:36;;;;;;;4.40;4.00;;;15.30;99.90;;;;;;4934637;29;20480;-72
2023/10/10 08:31:03;;;;;;;6.40;4.53;;;15.30;99.90;;;;;;4934869;29;20889;-72
2023/10/10 08:33:32;;;;;;;7.57;4.63;;;15.40;99.90;;;;;;4935094;29;20967;-73
2023/10/10 08:35:59;;;;;;;4.83;4.37;;;15.40;99.90;;;;;;4934596;29;20532;-72
2023/10/10 08:38:26;;;;;;;4.53;3.50;;;15.40;99.90;;;;;;4934729;29;20561;-72
2023/10/10 08:40:57;;;;;;;5.90;4.10;;;15.40;99.90;;;;;;4934690;29;21025;-71
2023/10/10 08:43:28;;;;;;;7.97;3.93;;;15.50;99.90;;;;;;4934712;29;20472;-71
2023/10/10 08:45:57;;;;;;;5.10;4.23;;;15.60;99.90;;;;;;4934965;29;20476;-72
2023/10/10 08:48:26;;;;;;;5.57;4.90;;;15.60;99.90;;;;;;4934769;29;20472;-71
2023/10/10 08:50:53;;;;;;;5.57;4.00;;;15.60;99.90;;;;;;4934611;29;21007;-71
2023/10/10 08:53:22;;;;;;;4.50;4.10;;;15.70;99.90;;;;;;4937948;29;20477;-71
2023/10/10 08:55:56;;;;;;;5.97;4.80;;;15.80;99.90;;;;;;4938568;29;20473;-71
2023/10/10 08:58:24;;;;;;;4.23;3.83;;;15.80;99.90;;;;;;4938280;29;20478;-71
2023/10/10 09:00:51;;;;;;;4.60;3.67;;;15.90;99.90;;;;;;4938276;29;20497;-71
2023/10/10 09:03:19;;;;;;;8.20;7.40;;;15.90;99.90;;;;;;4938415;29;20465;-72
2023/10/10 09:05:47;;;;;;;5.43;3.77;;;15.90;99.90;;;;;;4938772;29;20528;-72
2023/10/10 09:08:16;;;;;;;9.00;4.37;;;16.00;99.90;;;;;;4938110;29;20956;-72
2023/10/10 09:10:46;;;;;;;4.50;4.13;;;16.00;99.90;;;;;;4938295;29;20501;-72
2023/10/10 09:13:13;;;;;;;5.93;4.10;;;16.10;99.90;;;;;;4938439;29;20499;-72
2023/10/10 09:15:54;;;;;;;4.60;4.20;;;16.10;99.90;;;;;;4938019;29;20848;-73
2023/10/10 09:18:23;;;;;;;6.97;4.30;;;16.00;99.90;;;;;;4938135;29;20888;-73
2023/10/10 09:20:50;;;;;;;7.47;4.27;;;16.00;99.90;;;;;;4937838;29;20573;-71
2023/10/10 09:23:22;;;;;;;4.80;4.33;;;16.10;99.90;;;;;;4937860;29;20465;-72
2023/10/10 09:25:57;;;;;;;5.47;4.90;;;16.20;99.90;;;;;;4937892;29;20461;-72
2023/10/10 09:28:30;;;;;;;4.53;4.23;;;16.30;99.90;;;;;;4937894;29;20461;-72
2023/10/10 09:31:03;;;;;;;4.53;4.13;;;16.40;99.90;;;;;;4938373;29;20502;-72
2023/10/10 09:33:33;;;;;;;6.40;3.90;;;16.40;99.90;;;;;;4938161;29;20476;-73
2023/10/10 09:36:08;;;;;;;3.87;3.50;;;16.50;99.90;;;;;;4937771;29;20983;-72
2023/10/10 09:38:43;;;;;;;4.77;3.93;;;16.50;99.90;;;;;;4937763;29;20476;-72
2023/10/10 09:41:14;;;;;;;5.90;3.70;;;16.50;99.90;;;;;;4937779;29;20508;-73
2023/10/10 09:44:00;;;;;;;4.20;3.90;;;16.60;99.90;;;;;;4937513;29;20561;-73
2023/10/10 09:46:52;;;;;;;4.70;3.40;;;16.70;99.90;;;;;;4937734;29;20474;-72
2023/10/10 09:49:29;;;;;;;4.17;3.40;;;16.70;99.90;;;;;;4937390;29;20525;-72
2023/10/10 09:54:44;;;;;;;3.23;3.13;;;16.80;99.90;;;;;;4937478;29;20521;-72
2023/10/10 09:57:13;;;;;;;4.67;3.10;;;16.90;99.90;;;;;;4937542;29;20960;-72
2023/10/10 09:59:42;;;;;;;3.07;2.87;;;16.90;99.90;;;;;;4937307;29;20471;-73
2023/10/10 10:02:15;;;;;;;2.80;2.60;;;16.90;99.90;;;;;;4937037;29;20493;-73
2023/10/10 10:04:44;;;;;;;3.40;2.80;;;17.00;99.90;;;;;;4937450;29;20467;-73
2023/10/10 10:07:26;;;;;;;2.73;2.63;;;17.00;99.90;;;;;;4937758;29;20500;-72
2023/10/10 10:10:33;;;;;;;2.47;2.27;;;17.00;99.90;;;;;;4937399;29;20493;-73
2023/10/10 10:13:37;;;;;;;2.63;2.37;;;17.10;99.90;;;;;;4937564;29;20465;-73
2023/10/10 10:16:19;;;;;;;3.70;1.93;;;17.10;99.90;;;;;;4937488;29;20470;-70
2023/10/10 10:18:52;;;;;;;2.97;1.73;;;17.10;99.90;;;;;;4931825;29;20476;-71
2023/10/10 10:21:28;;;;;;;1.63;1.53;;;17.10;99.90;;;;;;4937537;29;20492;-71
2023/10/10 10:24:14;;;;;;;1.67;1.53;;;17.00;99.90;;;;;;4937348;29;20524;-71
2023/10/10 10:26:43;;;;;;;1.63;1.63;;;17.10;99.90;;;;;;4929784;29;20470;-71
2023/10/10 10:29:16;;;;;;;1.20;1.20;;;17.10;99.90;;;;;;4936924;29;20550;-71
2023/10/10 10:31:49;;;;;;;1.40;1.40;;;17.10;99.90;;;;;;4929221;29;20538;-71
2023/10/10 10:34:25;;;;;;;1.53;1.53;;;17.10;99.90;;;;;;4937028;29;20472;-71
2023/10/10 10:36:59;;;;;;;1.40;1.40;;;17.10;99.90;;;;;;4930578;29;20501;-71
2023/10/10 10:39:25;;;;;;;1.77;1.77;;;17.20;99.90;;;;;;4936794;29;20514;-71
2023/10/10 10:41:59;;;;;;;2.40;2.10;;;17.20;99.90;;;;;;4936562;29;20490;-71
2023/10/10 10:44:44;;;;;;;2.17;2.07;;;17.30;99.90;;;;;;4936697;29;20466;-70
2023/10/10 10:47:12;;;;;;;1.50;1.50;;;17.30;99.90;;;;;;4936831;29;20472;-71
2023/10/10 10:49:40;;;;;;;2.53;2.43;;;17.40;99.90;;;;;;4936483;29;20472;-70
2023/10/10 10:52:18;;;;;;;1.90;1.90;;;17.40;99.90;;;;;;4936497;29;20510;-71
2023/10/10 10:55:00;;;;;;;2.10;2.00;;;17.50;99.90;;;;;;4929128;29;20530;-71
2023/10/10 10:57:29;;;;;;;2.13;2.13;;;17.50;99.90;;;;;;4936417;29;20463;-71
2023/10/10 10:59:56;;;;;;;1.93;1.93;;;17.60;99.90;;;;;;4936192;29;20887;-70
2023/10/10 11:02:30;;;;;;;2.20;2.10;;;17.60;99.90;;;;;;4935941;29;20590;-71
2023/10/10 11:04:59;;;;;;;2.13;2.03;;;17.60;99.90;;;;;;4936145;29;20480;-71
2023/10/10 11:07:41;;;;;;;1.80;1.80;;;17.60;99.90;;;;;;4936320;29;20840;-69
2023/10/10 11:10:09;;;;;;;2.10;2.00;;;17.60;99.90;;;;;;4936070;29;20551;-71
2023/10/10 11:12:37;;;;;;;2.70;2.60;;;17.70;99.90;;;;;;4936060;29;20552;-70
2023/10/10 11:15:08;;;;;;;2.00;1.90;;;17.80;99.90;;;;;;4935073;29;20476;-70
2023/10/10 11:17:39;;;;;;;1.83;1.83;;;17.80;99.90;;;;;;4936091;29;20528;-70
2023/10/10 11:20:29;;;;;;;1.53;1.53;;;17.90;99.90;;;;;;4935881;29;20474;-70
2023/10/10 11:23:08;;;;;;;2.37;2.27;;;18.00;99.90;;;;;;4929528;29;20463;-70
2023/10/10 11:25:45;;;;;;;2.10;2.00;;;18.00;99.90;;;;;;4935091;29;20474;-70
2023/10/10 11:28:21;;;;;;;2.07;1.97;;;18.10;99.90;;;;;;4935652;29;20475;-70
2023/10/10 11:30:50;;;;;;;2.00;2.00;;;18.00;99.90;;;;;;4928442;29;20506;-70
2023/10/10 11:33:46;;;;;;;2.47;2.37;;;17.90;99.90;;;;;;4935460;29;20530;-70
2023/10/10 11:36:29;;;;;;;2.00;2.00;;;17.90;99.90;;;;;;4931266;29;20463;-70
2023/10/10 11:39:14;;;;;;;1.97;1.87;;;17.90;99.90;;;;;;4929359;29;20467;-70
2023/10/10 11:41:41;;;;;;;2.00;1.90;;;18.00;99.90;;;;;;4935313;29;20483;-70
2023/10/10 11:44:07;;;;;;;2.33;2.13;;;18.10;99.90;;;;;;4935123;29;20929;-71
2023/10/10 11:46:34;;;;;;;2.17;2.07;;;18.20;99.90;;;;;;4935104;29;20468;-71
2023/10/10 11:49:01;;;;;;;2.40;1.90;;;18.30;99.90;;;;;;4935435;29;20471;-70
2023/10/10 11:51:36;;;;;;;2.13;1.80;;;18.30;99.90;;;;;;4935438;29;20506;-70
2023/10/10 11:54:02;;;;;;;2.40;2.30;;;18.40;99.90;;;;;;4935430;29;20463;-71
2023/10/10 11:56:34;;;;;;;2.13;2.03;;;18.40;99.90;;;;;;4935410;29;20472;-70
2023/10/10 11:59:01;;;;;;;2.47;2.37;;;18.40;99.90;;;;;;4935357;29;20467;-71
2023/10/10 12:04:20;;;;;;;2.30;2.20;;;18.30;99.90;;;;;;4934980;29;20490;-72
2023/10/10 12:06:48;;;;;;;2.93;1.93;;;18.30;99.90;;;;;;4928108;29;20469;-71
2023/10/10 12:09:19;;;;;;;3.27;2.60;;;18.20;99.90;;;;;;4935180;29;20472;-71
2023/10/10 12:11:46;;;;;;;2.70;2.60;;;18.20;99.90;;;;;;4927527;29;20879;-71
2023/10/10 12:14:19;;;;;;;2.60;2.50;;;18.10;99.90;;;;;;4935030;29;20548;-71
2023/10/10 12:16:50;;;;;;;2.97;2.77;;;18.20;99.90;;;;;;4927973;29;20466;-71
2023/10/10 12:19:16;;;;;;;3.23;3.03;;;18.30;99.90;;;;;;4935047;29;20561;-71
2023/10/10 12:21:43;;;;;;;2.67;2.43;;;18.30;99.90;;;;;;4927159;29;20489;-71
2023/10/10 12:24:12;;;;;;;2.40;2.30;;;18.40;99.90;;;;;;4934789;29;20462;-71
2023/10/10 12:26:41;;;;;;;2.47;2.47;;;18.50;99.90;;;;;;4934757;29;20466;-71
2023/10/10 12:29:10;;;;;;;2.70;2.50;;;18.50;99.90;;;;;;4935006;29;20463;-71
2023/10/10 12:31:37;;;;;;;2.93;2.73;;;18.50;99.90;;;;;;4934689;29;20514;-71
2023/10/10 12:34:06;;;;;;;2.57;2.10;;;18.50;99.90;;;;;;4935198;29;20463;-71
2023/10/10 12:36:33;;;;;;;2.83;2.63;;;18.60;99.90;;;;;;4935032;29;20803;-71
2023/10/10 12:39:04;;;;;;;2.60;2.50;;;18.60;99.90;;;;;;4935132;29;20481;-71
2023/10/10 12:41:35;;;;;;;2.80;2.70;;;18.70;99.90;;;;;;4935056;29;20509;-71
2023/10/10 12:44:06;;;;;;;2.80;2.70;;;18.70;99.90;;;;;;4934983;29;20515;-71
2023/10/10 12:46:34;;;;;;;2.73;2.53;;;18.60;99.90;;;;;;4934761;29;20467;-70
2023/10/10 12:49:00;;;;;;;2.10;2.10;;;18.60;99.90;;;;;;4934608;29;20479;-71
2023/10/10 12:51:27;;;;;;;2.80;2.60;;;18.70;99.90;;;;;;4934704;29;20504;-71
2023/10/10 12:54:00;;;;;;;2.60;2.40;;;18.70;99.90;;;;;;4935133;29;20464;-71
2023/10/10 12:56:26;;;;;;;3.30;2.60;;;18.70;99.90;;;;;;4934849;29;20468;-71
2023/10/10 12:59:00;;;;;;;2.73;2.63;;;18.80;99.90;;;;;;4934821;29;20955;-71
2023/10/10 13:01:32;;;;;;;2.60;2.50;;;18.80;99.90;;;;;;4934448;29;20999;-71
2023/10/10 13:03:59;;;;;;;3.10;2.90;;;18.90;99.90;;;;;;4935167;29;20474;-71
2023/10/10 13:06:28;;;;;;;2.70;2.60;;;19.00;99.90;;;;;;4934779;29;20491;-71
2023/10/10 13:08:56;;;;;;;2.77;2.67;;;19.00;99.90;;;;;;4934535;29;20468;-71
2023/10/10 13:11:32;;;;;;;2.90;2.80;;;19.10;99.90;;;;;;4934666;29;20875;-71
2023/10/10 13:14:09;;;;;;;2.90;2.80;;;19.10;99.90;;;;;;4935187;29;20464;-72
2023/10/10 13:16:52;;;;;;;3.37;3.27;;;19.00;99.90;;;;;;4935138;29;20837;-72
2023/10/10 13:19:20;;;;;;;3.00;2.90;;;19.00;99.90;;;;;;4935061;29;20503;-72
2023/10/10 13:21:48;;;;;;;3.83;3.43;;;19.00;99.90;;;;;;4935309;29;20830;-72
2023/10/10 13:24:15;;;;;;;4.20;2.87;;;19.00;99.90;;;;;;4934525;29;20471;-72
2023/10/10 13:26:44;;;;;;;3.20;3.00;;;19.10;99.90;;;;;;4934189;29;20563;-71
2023/10/10 13:29:15;;;;;;;3.00;2.90;;;19.20;99.90;;;;;;4934591;29;20462;-72
2023/10/10 13:31:41;;;;;;;3.67;3.57;;;19.20;99.90;;;;;;4934317;29;20507;-72
2023/10/10 13:34:08;;;;;;;3.27;3.17;;;19.30;99.90;;;;;;4934608;29;20468;-72
2023/10/10 13:36:35;;;;;;;3.63;3.33;;;19.30;99.90;;;;;;4935008;29;20991;-71
2023/10/10 13:39:05;;;;;;;3.73;3.53;;;19.30;99.90;;;;;;4936692;29;20492;-71
2023/10/10 13:41:35;;;;;;;4.50;3.73;;;19.40;99.90;;;;;;4938221;29;20563;-71
2023/10/10 13:44:03;;;;;;;3.40;3.30;;;19.40;99.90;;;;;;4938014;29;20492;-71
2023/10/10 13:46:34;;;;;;;3.50;3.40;;;19.40;99.90;;;;;;4937953;29;20471;-71
2023/10/10 13:49:03;;;;;;;3.70;3.53;;;19.30;99.90;;;;;;4938334;29;20895;-71
2023/10/10 13:51:39;;;;;;;3.60;3.40;;;19.30;99.90;;;;;;4937994;29;20570;-71
2023/10/10 13:54:06;;;;;;;3.50;3.30;;;19.30;99.90;;;;;;4937951;29;20905;-71
2023/10/10 13:56:33;;;;;;;4.20;3.80;;;19.20;99.90;;;;;;4937872;29;20468;-71
2023/10/10 13:59:00;;;;;;;4.40;3.90;;;19.20;99.90;;;;;;4937965;29;20476;-71
2023/10/10 14:01:29;;;;;;;4.00;3.70;;;19.10;99.90;;;;;;4937479;29;21056;-71
2023/10/10 14:04:01;;;;;;;3.97;3.23;;;19.10;99.90;;;;;;4937667;29;20528;-71
2023/10/10 14:06:34;;;;;;;4.23;4.03;;;19.00;99.90;;;;;;4937982;29;20469;-71
2023/10/10 14:09:03;;;;;;;4.47;4.17;;;18.90;99.90;;;;;;4937824;29;20528;-71
2023/10/10 14:11:32;;;;;;;4.40;4.10;;;18.90;99.90;;;;;;4937778;29;20525;-71
2023/10/10 14:14:00;;;;;;;4.30;4.00;;;18.80;99.90;;;;;;4937550;29;20464;-71
2023/10/10 14:16:29;;;;;;;4.83;4.33;;;18.80;99.90;;;;;;4937303;29;20562;-71
2023/10/10 14:19:01;;;;;;;4.90;4.60;;;18.70;99.90;;;;;;4937475;29;20459;-71
2023/10/10 14:21:29;;;;;;;4.53;4.20;;;18.60;99.90;;;;;;4937396;29;20483;-71
2023/10/10 14:24:04;;;;;;;6.20;4.33;;;18.60;99.90;;;;;;4937583;29;20526;-71
2023/10/10 14:26:33;;;;;;;5.40;4.43;;;18.50;99.90;;;;;;4937346;29;20467;-71
2023/10/10 14:29:05;;;;;;;6.40;4.80;;;18.40;99.90;;;;;;4937297;29;20468;-71
2023/10/10 14:31:32;;;;;;;5.87;5.43;;;18.40;99.90;;;;;;4937475;29;20498;-71
2023/10/10 14:34:04;;;;;;;5.80;5.30;;;18.30;99.90;;;;;;4937815;29;20466;-71
2023/10/10 14:36:32;;;;;;;5.60;5.13;;;18.30;99.90;;;;;;4936894;29;20484;-71
2023/10/10 14:38:59;;;;;;;8.93;5.90;;;18.20;99.90;;;;;;4936717;29;20461;-71
2023/10/10 14:41:30;;;;;;;6.10;5.50;;;18.20;99.90;;;;;;4936529;29;20825;-71
2023/10/10 14:44:00;;;;;;;6.40;5.80;;;18.10;99.90;;;;;;4936833;29;20943;-71
2023/10/10 14:46:31;;;;;;;6.60;6.00;;;18.10;99.90;;;;;;4936565;29;20473;-71
2023/10/10 14:49:05;;;;;;;8.50;6.60;;;18.10;99.90;;;;;;4936650;29;20465;-71
2023/10/10 14:51:34;;;;;;;7.87;5.80;;;18.10;99.90;;;;;;4936328;29;20516;-71
2023/10/10 14:54:06;;;;;;;6.27;5.77;;;18.10;99.90;;;;;;4936573;29;20750;-71
2023/10/10 14:56:35;;;;;;;8.33;7.40;;;18.10;99.90;;;;;;4936535;29;20855;-71
2023/10/10 14:59:04;;;;;;;7.57;6.83;;;18.10;99.90;;;;;;4936336;29;20465;-71
2023/10/10 15:01:34;;;;;;;10.23;7.90;;;18.10;99.90;;;;;;4935921;29;20989;-71
2023/10/10 15:04:04;;;;;;;10.50;8.27;;;18.10;99.90;;;;;;4936357;29;20466;-71
2023/10/10 15:06:31;;;;;;;11.40;8.70;;;18.10;99.90;;;;;;4936655;29;20466;-71
2023/10/10 15:08:58;;;;;;;9.10;8.20;;;18.10;99.90;;;;;;4936199;29;21039;-71
2023/10/10 15:11:28;;;;;;;9.93;8.60;;;18.10;99.90;;;;;;4936107;29;20503;-71
2023/10/10 15:13:54;;;;;;;13.97;9.97;;;18.10;99.90;;;;;;4936229;29;20466;-71
2023/10/10 15:16:23;;;;;;;12.03;9.23;;;18.10;99.90;;;;;;4935875;29;20465;-71
2023/10/10 15:18:51;;;;;;;13.53;8.47;;;18.10;99.90;;;;;;4936105;29;20458;-71
2023/10/10 15:21:20;;;;;;;12.83;9.70;;;18.10;99.90;;;;;;4935794;29;20544;-71
2023/10/10 15:23:47;;;;;;;10.33;8.80;;;18.10;99.90;;;;;;4936188;29;20471;-71
2023/10/10 15:26:19;;;;;;;13.97;9.70;;;18.10;99.90;;;;;;4936012;29;20461;-71
2023/10/10 15:28:46;;;;;;;12.80;11.43;;;18.10;99.90;;;;;;4928690;29;20818;-71
2023/10/10 15:31:13;;;;;;;14.13;10.57;;;18.00;99.90;;;;;;4935620;29;20498;-71
2023/10/10 15:33:43;;;;;;;12.90;10.70;;;18.00;99.90;;;;;;4935683;29;20473;-71
2023/10/10 15:36:11;;;;;;;14.87;11.20;;;18.00;99.90;;;;;;4935678;29;20462;-71
2023/10/10 15:38:39;;;;;;;12.53;11.23;;;18.00;99.90;;;;;;4935668;29;20481;-71
2023/10/10 15:41:17;;;;;;;14.97;10.97;;;17.90;99.90;;;;;;4935858;29;20486;-71
2023/10/10 15:43:46;;;;;;;14.50;10.33;;;17.90;99.90;;;;;;4927912;29;20501;-71
2023/10/10 15:46:13;;;;;;;13.47;10.90;;;17.90;99.90;;;;;;4935243;29;20494;-71
2023/10/10 15:48:48;;;;;;;18.43;11.00;;;17.80;99.90;;;;;;4935359;29;20461;-71
2023/10/10 15:51:15;;;;;;;14.17;10.87;;;17.80;99.90;;;;;;4935333;29;20521;-71
2023/10/10 15:53:43;;;;;;;13.67;11.20;;;17.80;99.90;;;;;;4935361;29;20466;-71
2023/10/10 15:56:15;;;;;;;17.20;11.43;;;17.80;99.90;;;;;;4935174;29;20471;-71
2023/10/10 15:58:44;;;;;;;16.70;12.17;;;17.80;99.90;;;;;;4935106;29;20469;-71
2023/10/10 16:01:13;;;;;;;20.83;13.20;;;17.80;99.90;;;;;;4934777;29;20497;-71
2023/10/10 16:03:40;;;;;;;17.07;12.90;;;17.80;99.90;;;;;;4935359;29;20504;-71
2023/10/10 16:06:08;;;;;;;25.67;13.30;;;17.70;99.90;;;;;;4935263;29;20465;-71
2023/10/10 16:08:36;;;;;;;21.93;12.73;;;17.70;99.90;;;;;;4935451;29;20466;-71
2023/10/10 16:11:06;;;;;;;14.10;10.70;;;17.70;99.90;;;;;;4935098;29;20486;-71
2023/10/10 16:13:36;;;;;;;19.40;12.10;;;17.70;99.90;;;;;;4935391;29;20500;-71
2023/10/10 16:16:06;;;;;;;17.70;12.80;;;17.70;99.90;;;;;;4935247;29;20469;-71
2023/10/10 16:18:34;;;;;;;14.03;12.50;;;17.70;99.90;;;;;;4935336;29;20469;-71
2023/10/10 16:21:03;;;;;;;16.23;11.73;;;17.70;99.90;;;;;;4934925;29;20485;-71
2023/10/10 16:23:30;;;;;;;17.10;12.40;;;17.70;99.90;;;;;;4934887;29;20467;-71
2023/10/10 16:25:58;;;;;;;17.90;12.33;;;17.70;99.90;;;;;;4934790;29;20880;-71
2023/10/10 16:28:27;;;;;;;17.63;12.27;;;17.70;99.90;;;;;;4934913;29;20609;-71
2023/10/10 16:30:54;;;;;;;16.40;13.23;;;17.60;99.90;;;;;;4934608;29;20485;-71
2023/10/10 16:33:23;;;;;;;17.03;13.53;;;17.60;99.90;;;;;;4934093;29;20497;-71
2023/10/10 16:35:50;;;;;;;23.57;14.03;;;17.60;99.90;;;;;;4934110;29;20818;-71
2023/10/10 16:38:21;;;;;;;16.63;13.33;;;17.60;99.90;;;;;;4934007;29;20496;-71
2023/10/10 16:40:50;;;;;;;19.83;13.60;;;17.60;99.90;;;;;;4934398;29;20493;-71
2023/10/10 16:43:17;;;;;;;19.27;14.20;;;17.50;99.90;;;;;;4934402;29;20457;-71
2023/10/10 16:45:49;;;;;;;19.33;13.00;;;17.50;99.90;;;;;;4934201;29;20865;-71
2023/10/10 16:48:16;;;;;;;23.10;13.90;;;17.50;99.90;;;;;;4934310;29;20981;-71
2023/10/10 16:50:43;;;;;;;18.47;13.20;;;17.50;99.90;;;;;;4933808;29;20589;-71
2023/10/10 16:53:11;;;;;;;15.73;13.03;;;17.50;99.90;;;;;;4934092;29;21020;-71
2023/10/10 16:55:40;;;;;;;17.77;13.20;;;17.40;99.90;;;;;;4934141;29;20536;-71
2023/10/10 16:58:07;;;;;;;21.80;13.80;;;17.40;99.90;;;;;;4933932;29;20473;-71
2023/10/10 17:00:34;;;;;;;19.30;13.67;;;17.40;99.90;;;;;;4933697;29;20501;-71
2023/10/10 17:03:02;;;;;;;21.67;13.97;;;17.40;99.90;;;;;;4933954;29;20472;-71
2023/10/10 17:05:36;;;;;;;19.77;13.00;;;17.40;99.90;;;;;;4934027;29;20473;-71
2023/10/10 17:08:03;;;;;;;18.40;13.07;;;17.40;99.90;;;;;;4935021;29;20480;-71
2023/10/10 17:10:32;;;;;;;26.83;14.47;;;17.40;99.90;;;;;;4934489;29;20818;-71
2023/10/10 17:13:00;;;;;;;21.17;13.43;;;17.40;99.90;;;;;;4935567;29;20497;-71
2023/10/10 17:15:27;;;;;;;23.47;13.83;;;17.40;99.90;;;;;;4938119;29;20500;-71
2023/10/10 17:17:57;;;;;;;21.30;14.10;;;17.30;99.90;;;;;;4938192;29;20465;-71
2023/10/10 17:20:25;;;;;;;20.90;14.03;;;17.30;99.90;;;;;;4937984;29;20469;-71
2023/10/10 17:22:54;;;;;;;19.60;15.57;;;17.30;99.90;;;;;;4938245;29;20516;-71
2023/10/10 17:25:20;;;;;;;22.73;13.60;;;17.40;99.90;;;;;;4937987;29;20462;-69
2023/10/10 17:27:51;;;;;;;17.53;13.60;;;17.40;99.90;;;;;;4938002;29;20944;-69
2023/10/10 17:30:20;;;;;;;18.40;14.20;;;17.30;99.90;;;;;;4937774;29;20864;-71
2023/10/10 17:32:47;;;;;;;22.70;13.67;;;17.30;99.90;;;;;;4938147;29;20493;-71
2023/10/10 17:35:17;;;;;;;23.30;12.97;;;17.30;99.90;;;;;;4937826;29;20465;-71
2023/10/10 17:37:45;;;;;;;22.10;13.40;;;17.30;99.90;;;;;;4937609;29;20465;-71
2023/10/10 17:40:13;;;;;;;23.03;14.73;;;17.30;99.90;;;;;;4937301;29;20461;-71
2023/10/10 17:42:46;;;;;;;23.30;13.87;;;17.30;99.90;;;;;;4937388;29;20457;-69
2023/10/10 17:45:12;;;;;;;15.93;14.10;;;17.30;99.90;;;;;;4937547;29;20465;-69
2023/10/10 17:47:40;;;;;;;18.37;13.50;;;17.30;99.90;;;;;;4937841;29;20487;-70
2023/10/10 17:50:07;;;;;;;16.67;13.03;;;17.30;99.90;;;;;;4937581;29;20970;-70
2023/10/10 17:52:34;;;;;;;18.27;14.20;;;17.30;99.90;;;;;;4937476;29;20500;-71
2023/10/10 17:55:02;;;;;;;19.47;14.67;;;17.30;99.90;;;;;;4937478;29;20473;-70
2023/10/10 17:57:30;;;;;;;21.60;15.30;;;17.30;99.90;;;;;;4937257;29;20469;-70
2023/10/10 17:59:57;;;;;;;21.60;13.40;;;17.30;99.90;;;;;;4937586;29;20465;-70
2023/10/10 18:02:23;;;;;;;26.77;15.30;;;17.30;99.90;;;;;;4937314;29;20497;-71
2023/10/10 18:04:51;;;;;;;18.30;14.13;;;17.30;99.90;;;;;;4937625;29;20474;-70
2023/10/10 18:07:21;;;;;;;17.00;13.23;;;17.30;99.90;;;;;;4937457;29;20469;-71
2023/10/10 18:09:54;;;;;;;17.87;14.00;;;17.20;99.90;;;;;;4937283;29;20468;-70
2023/10/10 18:12:22;;;;;;;19.40;14.13;;;17.20;99.90;;;;;;4937483;29;20865;-71
2023/10/10 18:14:53;;;;;;;28.23;15.00;;;17.20;99.90;;;;;;4937156;29;20469;-71
2023/10/10 18:17:21;;;;;;;16.20;13.20;;;17.20;99.90;;;;;;4937243;29;20466;-71
2023/10/10 18:19:49;;;;;;;23.90;14.30;;;17.20;99.90;;;;;;4937277;29;20977;-71
2023/10/10 18:22:18;;;;;;;20.80;13.50;;;17.20;99.90;;;;;;4937016;29;20481;-71
2023/10/10 18:24:46;;;;;;;18.63;14.20;;;17.30;99.90;;;;;;4936731;29;20467;-71
2023/10/10 18:27:14;;;;;;;17.90;12.53;;;17.20;99.90;;;;;;4937129;29;20461;-71
2023/10/10 18:29:42;;;;;;;19.87;12.87;;;17.20;99.90;;;;;;4936954;29;20956;-70